sensor_id;sensor_type;location;lat;lon;timestamp;pressure;altitude;pressure_sealevel;temperature;humidity
72116;BME280;59991;52.140;5.428;2023-05-09T00:00:10;101801.22;;;15.16;92.51
72116;BME280;59991;52.140;5.428;2023-05-09T00:00:41;101799.66;;;15.15;92.94
72116;BME280;59991;52.140;5.428;2023-05-09T00:01:13;101797.69;;;15.15;92.61
72116;BME280;59991;52.140;5.428;2023-05-09T00:01:45;101802.41;;;15.15;92.77
72116;BME280;59991;52.140;5.428;2023-05-09T00:02:16;101801.59;;;15.14;92.93
72116;BME280;59991;52.140;5.428;2023-05-09T00:02:48;101800.03;;;15.13;92.98
72116;BME280;59991;52.140;5.428;2023-05-09T00:03:20;101792.56;;;15.14;92.80
72116;BME280;59991;52.140;5.428;2023-05-09T00:03:51;101795.72;;;15.12;92.47
72116;BME280;59991;52.140;5.428;2023-05-09T00:04:23;101796.50;;;15.13;93.07
72116;BME280;59991;52.140;5.428;2023-05-09T00:04:55;101795.72;;;15.12;92.42
72116;BME280;59991;52.140;5.428;2023-05-09T00:05:27;101801.59;;;15.11;92.89
72116;BME280;59991;52.140;5.428;2023-05-09T00:05:58;101792.56;;;15.10;92.92
72116;BME280;59991;52.140;5.428;2023-05-09T00:06:30;101789.03;;;15.10;92.68
72116;BME280;59991;52.140;5.428;2023-05-09T00:07:02;101794.50;;;15.10;92.41
72116;BME280;59991;52.140;5.428;2023-05-09T00:07:34;101789.41;;;15.08;92.80
72116;BME280;59991;52.140;5.428;2023-05-09T00:08:05;101790.97;;;15.09;92.67
72116;BME280;59991;52.140;5.428;2023-05-09T00:08:36;101789.41;;;15.08;93.06
72116;BME280;59991;52.140;5.428;2023-05-09T00:09:08;101789.41;;;15.08;93.29
72116;BME280;59991;52.140;5.428;2023-05-09T00:09:39;101787.03;;;15.07;92.83
72116;BME280;59991;52.140;5.428;2023-05-09T00:10:11;101792.16;;;15.08;92.92
72116;BME280;59991;52.140;5.428;2023-05-09T00:10:42;101787.03;;;15.07;93.11
72116;BME280;59991;52.140;5.428;2023-05-09T00:11:14;101785.84;;;15.04;93.80
72116;BME280;59991;52.140;5.428;2023-05-09T00:11:45;101783.09;;;15.04;93.51
72116;BME280;59991;52.140;5.428;2023-05-09T00:12:17;101787.81;;;15.04;93.31
72116;BME280;59991;52.140;5.428;2023-05-09T00:12:48;101788.19;;;15.02;93.20
72116;BME280;59991;52.140;5.428;2023-05-09T00:13:20;101788.19;;;15.02;93.13
72116;BME280;59991;52.140;5.428;2023-05-09T00:13:51;101785.84;;;15.01;93.24
72116;BME280;59991;52.140;5.428;2023-05-09T00:14:23;101788.19;;;15.02;93.15
72116;BME280;59991;52.140;5.428;2023-05-09T00:14:55;101787.00;;;15.03;92.96
72116;BME280;59991;52.140;5.428;2023-05-09T00:15:27;101788.19;;;15.02;93.11
72116;BME280;59991;52.140;5.428;2023-05-09T00:15:59;101786.22;;;15.03;92.79
72116;BME280;59991;52.140;5.428;2023-05-09T00:16:31;101784.25;;;15.03;92.96
72116;BME280;59991;52.140;5.428;2023-05-09T00:17:03;101792.50;;;15.03;93.16
72116;BME280;59991;52.140;5.428;2023-05-09T00:17:35;101781.91;;;15.02;92.97
72116;BME280;59991;52.140;5.428;2023-05-09T00:18:06;101784.66;;;15.02;93.39
72116;BME280;59991;52.140;5.428;2023-05-09T00:18:38;101783.84;;;15.01;93.38
72116;BME280;59991;52.140;5.428;2023-05-09T00:19:12;101784.66;;;15.02;93.59
72116;BME280;59991;52.140;5.428;2023-05-09T00:19:44;101780.72;;;15.03;93.33
72116;BME280;59991;52.140;5.428;2023-05-09T00:20:15;101788.97;;;15.03;93.45
72116;BME280;59991;52.140;5.428;2023-05-09T00:20:47;101785.44;;;15.02;93.32
72116;BME280;59991;52.140;5.428;2023-05-09T00:21:19;101794.47;;;15.03;93.41
72116;BME280;59991;52.140;5.428;2023-05-09T00:21:51;101781.91;;;15.02;93.20
72116;BME280;59991;52.140;5.428;2023-05-09T00:22:22;101779.94;;;15.02;92.87
72116;BME280;59991;52.140;5.428;2023-05-09T00:22:53;101779.16;;;15.02;92.91
72116;BME280;59991;52.140;5.428;2023-05-09T00:23:25;101777.19;;;15.02;92.42
72116;BME280;59991;52.140;5.428;2023-05-09T00:23:56;101785.44;;;15.02;92.69
72116;BME280;59991;52.140;5.428;2023-05-09T00:24:29;101779.16;;;15.02;92.84
72116;BME280;59991;52.140;5.428;2023-05-09T00:25:00;101776.81;;;15.00;93.17
72116;BME280;59991;52.140;5.428;2023-05-09T00:25:32;101775.63;;;15.01;93.62
72116;BME280;59991;52.140;5.428;2023-05-09T00:26:03;101786.59;;;15.01;93.11
72116;BME280;59991;52.140;5.428;2023-05-09T00:26:35;101779.56;;;15.00;92.96
72116;BME280;59991;52.140;5.428;2023-05-09T00:27:07;101784.28;;;15.00;93.38
72116;BME280;59991;52.140;5.428;2023-05-09T00:27:38;101781.53;;;15.00;93.12
72116;BME280;59991;52.140;5.428;2023-05-09T00:28:10;101780.72;;;14.99;93.37
72116;BME280;59991;52.140;5.428;2023-05-09T00:28:41;101781.91;;;14.98;93.29
72116;BME280;59991;52.140;5.428;2023-05-09T00:29:12;101778.38;;;14.98;93.09
72116;BME280;59991;52.140;5.428;2023-05-09T00:29:44;101777.59;;;14.97;93.08
72116;BME280;59991;52.140;5.428;2023-05-09T00:30:15;101790.53;;;14.97;93.18
72116;BME280;59991;52.140;5.428;2023-05-09T00:30:47;101776.00;;;14.96;93.58
72116;BME280;59991;52.140;5.428;2023-05-09T00:31:19;101781.50;;;14.96;93.35
72116;BME280;59991;52.140;5.428;2023-05-09T00:31:51;101781.50;;;14.96;93.38
72116;BME280;59991;52.140;5.428;2023-05-09T00:32:22;101787.00;;;14.96;92.97
72116;BME280;59991;52.140;5.428;2023-05-09T00:32:56;101777.97;;;14.96;93.37
72116;BME280;59991;52.140;5.428;2023-05-09T00:33:28;101775.22;;;14.96;93.57
72116;BME280;59991;52.140;5.428;2023-05-09T00:33:59;101778.34;;;14.94;93.63
72116;BME280;59991;52.140;5.428;2023-05-09T00:34:31;101781.09;;;14.94;93.20
72116;BME280;59991;52.140;5.428;2023-05-09T00:35:03;101784.63;;;14.95;93.40
72116;BME280;59991;52.140;5.428;2023-05-09T00:35:35;101783.06;;;14.94;93.65
72116;BME280;59991;52.140;5.428;2023-05-09T00:36:06;101785.81;;;14.94;93.61
72116;BME280;59991;52.140;5.428;2023-05-09T00:36:38;101781.47;;;14.93;94.18
72116;BME280;59991;52.140;5.428;2023-05-09T00:37:09;101785.38;;;14.92;93.61
72116;BME280;59991;52.140;5.428;2023-05-09T00:37:41;101782.66;;;14.92;93.78
72116;BME280;59991;52.140;5.428;2023-05-09T00:38:12;101783.81;;;14.91;93.54
72116;BME280;59991;52.140;5.428;2023-05-09T00:38:44;101784.59;;;14.91;93.67
72116;BME280;59991;52.140;5.428;2023-05-09T00:39:16;101785.78;;;14.90;93.98
72116;BME280;59991;52.140;5.428;2023-05-09T00:39:47;101785.78;;;14.90;93.59
72116;BME280;59991;52.140;5.428;2023-05-09T00:40:19;101780.28;;;14.90;93.52
72116;BME280;59991;52.140;5.428;2023-05-09T00:40:50;101774.00;;;14.90;93.81
72116;BME280;59991;52.140;5.428;2023-05-09T00:41:22;101775.97;;;14.89;93.65
72116;BME280;59991;52.140;5.428;2023-05-09T00:41:55;101775.97;;;14.89;93.93
72116;BME280;59991;52.140;5.428;2023-05-09T00:42:27;101777.13;;;14.88;93.49
72116;BME280;59991;52.140;5.428;2023-05-09T00:42:58;101774.38;;;14.88;93.72
72116;BME280;59991;52.140;5.428;2023-05-09T00:43:30;101772.81;;;14.87;93.67
72116;BME280;59991;52.140;5.428;2023-05-09T00:44:02;101770.84;;;14.88;93.92
72116;BME280;59991;52.140;5.428;2023-05-09T00:44:33;101767.31;;;14.87;93.98
72116;BME280;59991;52.140;5.428;2023-05-09T00:45:05;101772.81;;;14.87;94.02
72116;BME280;59991;52.140;5.428;2023-05-09T00:45:37;101776.72;;;14.86;94.01
72116;BME280;59991;52.140;5.428;2023-05-09T00:46:08;101778.69;;;14.85;93.17
72116;BME280;59991;52.140;5.428;2023-05-09T00:46:40;101772.00;;;14.86;93.51
72116;BME280;59991;52.140;5.428;2023-05-09T00:47:12;101768.47;;;14.86;93.90
72116;BME280;59991;52.140;5.428;2023-05-09T00:47:43;101777.50;;;14.86;93.91
72116;BME280;59991;52.140;5.428;2023-05-09T00:48:15;101773.19;;;14.85;94.04
72116;BME280;59991;52.140;5.428;2023-05-09T00:48:47;101776.72;;;14.86;94.08
72116;BME280;59991;52.140;5.428;2023-05-09T00:49:18;101768.47;;;14.86;93.90
72116;BME280;59991;52.140;5.428;2023-05-09T00:49:50;101773.19;;;14.85;93.66
72116;BME280;59991;52.140;5.428;2023-05-09T00:50:22;101765.72;;;14.86;94.30
72116;BME280;59991;52.140;5.428;2023-05-09T00:50:54;101764.16;;;14.85;93.92
72116;BME280;59991;52.140;5.428;2023-05-09T00:51:27;101767.69;;;14.85;94.18
72116;BME280;59991;52.140;5.428;2023-05-09T00:51:58;101761.41;;;14.85;93.49
72116;BME280;59991;52.140;5.428;2023-05-09T00:52:31;101764.16;;;14.85;93.97
72116;BME280;59991;52.140;5.428;2023-05-09T00:53:03;101765.31;;;14.84;94.26
72116;BME280;59991;52.140;5.428;2023-05-09T00:53:35;101761.41;;;14.85;94.13
72116;BME280;59991;52.140;5.428;2023-05-09T00:54:07;101758.66;;;14.85;93.95
72116;BME280;59991;52.140;5.428;2023-05-09T00:54:39;101762.59;;;14.84;93.95
72116;BME280;59991;52.140;5.428;2023-05-09T00:55:12;101755.50;;;14.83;94.02
72116;BME280;59991;52.140;5.428;2023-05-09T00:55:44;101766.50;;;14.83;94.18
72116;BME280;59991;52.140;5.428;2023-05-09T00:56:15;101761.78;;;14.83;94.34
72116;BME280;59991;52.140;5.428;2023-05-09T00:56:47;101759.06;;;14.83;94.54
72116;BME280;59991;52.140;5.428;2023-05-09T00:57:18;101763.75;;;14.83;93.88
72116;BME280;59991;52.140;5.428;2023-05-09T00:57:50;101769.25;;;14.83;94.04
72116;BME280;59991;52.140;5.428;2023-05-09T00:58:22;101762.19;;;14.82;94.14
72116;BME280;59991;52.140;5.428;2023-05-09T00:58:54;101762.19;;;14.82;94.57
72116;BME280;59991;52.140;5.428;2023-05-09T00:59:26;101762.97;;;14.82;94.56
72116;BME280;59991;52.140;5.428;2023-05-09T00:59:57;101776.69;;;14.82;94.27
72116;BME280;59991;52.140;5.428;2023-05-09T01:00:30;101770.41;;;14.82;94.65
72116;BME280;59991;52.140;5.428;2023-05-09T01:01:01;101766.91;;;14.81;94.21
72116;BME280;59991;52.140;5.428;2023-05-09T01:01:34;101768.47;;;14.82;94.27
72116;BME280;59991;52.140;5.428;2023-05-09T01:02:05;101764.91;;;14.82;94.71
72116;BME280;59991;52.140;5.428;2023-05-09T01:02:49;101766.50;;;14.83;94.54
72116;BME280;59991;52.140;5.428;2023-05-09T01:03:23;101759.44;;;14.82;94.89
72116;BME280;59991;52.140;5.428;2023-05-09T01:03:55;101763.38;;;14.81;95.04
72116;BME280;59991;52.140;5.428;2023-05-09T01:04:26;101761.81;;;14.80;94.86
72116;BME280;59991;52.140;5.428;2023-05-09T01:04:58;101764.53;;;14.80;94.41
72116;BME280;59991;52.140;5.428;2023-05-09T01:05:39;101761.81;;;14.80;94.98
72116;BME280;59991;52.140;5.428;2023-05-09T01:07:03;101762.97;;;14.79;95.13
72116;BME280;59991;52.140;5.428;2023-05-09T01:09:23;101753.53;;;14.76;94.57
72116;BME280;59991;52.140;5.428;2023-05-09T01:10:18;101747.25;;;14.76;95.35
72116;BME280;59991;52.140;5.428;2023-05-09T01:11:09;101743.34;;;14.77;94.72
72116;BME280;59991;52.140;5.428;2023-05-09T01:12:36;101741.75;;;14.76;94.77
72116;BME280;59991;52.140;5.428;2023-05-09T01:13:23;101739.41;;;14.74;94.86
72116;BME280;59991;52.140;5.428;2023-05-09T01:15:05;101739.41;;;14.74;94.64
72116;BME280;59991;52.140;5.428;2023-05-09T01:15:44;101741.34;;;14.74;94.23
72116;BME280;59991;52.140;5.428;2023-05-09T01:17:12;101739.00;;;14.72;94.83
72116;BME280;59991;52.140;5.428;2023-05-09T01:17:52;101736.63;;;14.71;94.92
72116;BME280;59991;52.140;5.428;2023-05-09T01:18:30;101731.94;;;14.71;94.54
72116;BME280;59991;52.140;5.428;2023-05-09T01:19:31;101732.31;;;14.70;94.86
72116;BME280;59991;52.140;5.428;2023-05-09T01:21:07;101729.56;;;14.70;95.06
72116;BME280;59991;52.140;5.428;2023-05-09T01:21:43;101733.47;;;14.69;94.89
72116;BME280;59991;52.140;5.428;2023-05-09T01:22:19;101733.47;;;14.69;95.33
72116;BME280;59991;52.140;5.428;2023-05-09T01:27:32;101723.63;;;14.64;94.94
72116;BME280;59991;52.140;5.428;2023-05-09T01:28:14;101721.28;;;14.63;95.17
72116;BME280;59991;52.140;5.428;2023-05-09T01:29:43;101720.91;;;14.61;95.79
72116;BME280;59991;52.140;5.428;2023-05-09T01:30:16;101722.06;;;14.60;95.29
72116;BME280;59991;52.140;5.428;2023-05-09T01:30:50;101717.75;;;14.59;95.51
72116;BME280;59991;52.140;5.428;2023-05-09T01:31:24;101713.84;;;14.60;95.73
72116;BME280;59991;52.140;5.428;2023-05-09T01:31:58;101713.84;;;14.60;95.74
72116;BME280;59991;52.140;5.428;2023-05-09T01:32:34;101716.56;;;14.60;95.37
72116;BME280;59991;52.140;5.428;2023-05-09T01:33:09;101716.56;;;14.60;95.67
72116;BME280;59991;52.140;5.428;2023-05-09T01:33:45;101715.00;;;14.59;95.54
72116;BME280;59991;52.140;5.428;2023-05-09T01:34:20;101713.44;;;14.58;95.98
72116;BME280;59991;52.140;5.428;2023-05-09T01:34:55;101707.16;;;14.57;95.63
72116;BME280;59991;52.140;5.428;2023-05-09T01:35:30;101709.88;;;14.57;95.48
72116;BME280;59991;52.140;5.428;2023-05-09T01:36:07;101710.69;;;14.58;95.61
72116;BME280;59991;52.140;5.428;2023-05-09T01:36:41;101705.97;;;14.58;95.74
72116;BME280;59991;52.140;5.428;2023-05-09T01:37:14;101715.00;;;14.59;95.18
72116;BME280;59991;52.140;5.428;2023-05-09T01:37:48;101707.94;;;14.58;95.85
72116;BME280;59991;52.140;5.428;2023-05-09T01:38:22;101717.75;;;14.59;95.58
72116;BME280;59991;52.140;5.428;2023-05-09T01:38:56;101707.94;;;14.58;95.90
72116;BME280;59991;52.140;5.428;2023-05-09T01:39:29;101712.63;;;14.57;95.84
72116;BME280;59991;52.140;5.428;2023-05-09T01:40:06;101712.25;;;14.59;95.17
72116;BME280;59991;52.140;5.428;2023-05-09T01:40:40;101707.94;;;14.58;95.53
72116;BME280;59991;52.140;5.428;2023-05-09T01:41:14;101712.63;;;14.57;95.09
72116;BME280;59991;52.140;5.428;2023-05-09T01:41:47;101705.97;;;14.58;95.17
72116;BME280;59991;52.140;5.428;2023-05-09T01:42:20;101711.47;;;14.58;95.38
72116;BME280;59991;52.140;5.428;2023-05-09T01:43:04;101714.59;;;14.57;95.84
72116;BME280;59991;52.140;5.428;2023-05-09T01:43:37;101709.88;;;14.57;95.84
72116;BME280;59991;52.140;5.428;2023-05-09T01:44:11;101714.59;;;14.57;95.58
72116;BME280;59991;52.140;5.428;2023-05-09T01:44:45;101713.00;;;14.56;95.54
72116;BME280;59991;52.140;5.428;2023-05-09T01:45:18;101714.19;;;14.55;95.73
72116;BME280;59991;52.140;5.428;2023-05-09T01:45:50;101717.72;;;14.55;95.46
72116;BME280;59991;52.140;5.428;2023-05-09T01:46:24;101708.69;;;14.55;95.42
72116;BME280;59991;52.140;5.428;2023-05-09T01:46:56;101716.16;;;14.54;95.88
72116;BME280;59991;52.140;5.428;2023-05-09T01:47:29;101708.28;;;14.52;96.14
72116;BME280;59991;52.140;5.428;2023-05-09T01:48:01;101706.34;;;14.53;96.17
72116;BME280;59991;52.140;5.428;2023-05-09T01:48:35;101707.50;;;14.52;96.15
72116;BME280;59991;52.140;5.428;2023-05-09T01:49:08;101711.03;;;14.52;96.48
72116;BME280;59991;52.140;5.428;2023-05-09T01:49:42;101705.53;;;14.52;96.19
72116;BME280;59991;52.140;5.428;2023-05-09T01:50:17;101706.72;;;14.51;96.47
72116;BME280;59991;52.140;5.428;2023-05-09T01:50:49;101701.22;;;14.51;96.07
72116;BME280;59991;52.140;5.428;2023-05-09T01:51:20;101701.22;;;14.51;96.00
72116;BME280;59991;52.140;5.428;2023-05-09T01:51:53;101703.97;;;14.51;96.15
72116;BME280;59991;52.140;5.428;2023-05-09T01:52:25;101701.22;;;14.51;95.70
72116;BME280;59991;52.140;5.428;2023-05-09T01:52:58;101696.91;;;14.50;96.25
72116;BME280;59991;52.140;5.428;2023-05-09T01:53:31;101702.00;;;14.52;96.37
72116;BME280;59991;52.140;5.428;2023-05-09T01:54:05;101702.00;;;14.52;95.80
72116;BME280;59991;52.140;5.428;2023-05-09T01:54:38;101701.22;;;14.51;96.00
72116;BME280;59991;52.140;5.428;2023-05-09T01:55:10;101696.53;;;14.52;95.70
72116;BME280;59991;52.140;5.428;2023-05-09T01:55:43;101701.22;;;14.51;96.00
72116;BME280;59991;52.140;5.428;2023-05-09T01:56:17;101697.69;;;14.51;96.21
72116;BME280;59991;52.140;5.428;2023-05-09T01:56:49;101705.91;;;14.51;96.06
72116;BME280;59991;52.140;5.428;2023-05-09T01:57:22;101701.22;;;14.51;96.08
72116;BME280;59991;52.140;5.428;2023-05-09T01:57:56;101699.66;;;14.50;95.74
72116;BME280;59991;52.140;5.428;2023-05-09T01:58:31;101705.13;;;14.50;95.82
72116;BME280;59991;52.140;5.428;2023-05-09T01:59:05;101700.44;;;14.51;96.29
72116;BME280;59991;52.140;5.428;2023-05-09T01:59:39;101702.38;;;14.50;95.80
72116;BME280;59991;52.140;5.428;2023-05-09T02:00:12;101704.34;;;14.50;96.14
72116;BME280;59991;52.140;5.428;2023-05-09T02:00:46;101704.34;;;14.50;95.54
72116;BME280;59991;52.140;5.428;2023-05-09T02:01:19;101702.78;;;14.49;95.86
72116;BME280;59991;52.140;5.428;2023-05-09T02:01:51;101696.50;;;14.48;95.89
72116;BME280;59991;52.140;5.428;2023-05-09T02:02:26;101700.03;;;14.49;96.26
72116;BME280;59991;52.140;5.428;2023-05-09T02:02:58;101693.75;;;14.48;95.80
72116;BME280;59991;52.140;5.428;2023-05-09T02:03:33;101694.91;;;14.47;96.53
72116;BME280;59991;52.140;5.428;2023-05-09T02:04:04;101698.44;;;14.48;95.83
72116;BME280;59991;52.140;5.428;2023-05-09T02:04:37;101701.19;;;14.48;96.05
72116;BME280;59991;52.140;5.428;2023-05-09T02:05:11;101700.41;;;14.47;95.85
72116;BME280;59991;52.140;5.428;2023-05-09T02:05:45;101691.38;;;14.47;96.30
72116;BME280;59991;52.140;5.428;2023-05-09T02:06:19;101696.09;;;14.46;96.60
72116;BME280;59991;52.140;5.428;2023-05-09T02:06:52;101693.34;;;14.46;96.21
72116;BME280;59991;52.140;5.428;2023-05-09T02:07:26;101700.78;;;14.46;96.57
72116;BME280;59991;52.140;5.428;2023-05-09T02:07:59;101692.56;;;14.46;96.15
72116;BME280;59991;52.140;5.428;2023-05-09T02:08:31;101693.34;;;14.46;96.22
72116;BME280;59991;52.140;5.428;2023-05-09T02:09:03;101696.09;;;14.46;96.47
72116;BME280;59991;52.140;5.428;2023-05-09T02:09:35;101696.09;;;14.46;96.27
72116;BME280;59991;52.140;5.428;2023-05-09T02:10:08;101686.28;;;14.45;96.30
72116;BME280;59991;52.140;5.428;2023-05-09T02:10:40;101692.56;;;14.46;95.84
72116;BME280;59991;52.140;5.428;2023-05-09T02:11:12;101687.06;;;14.46;96.48
72116;BME280;59991;52.140;5.428;2023-05-09T02:11:44;101691.78;;;14.45;96.24
72116;BME280;59991;52.140;5.428;2023-05-09T02:12:15;101685.13;;;14.46;95.84
72116;BME280;59991;52.140;5.428;2023-05-09T02:12:47;101686.28;;;14.45;96.37
72116;BME280;59991;52.140;5.428;2023-05-09T02:13:19;101690.97;;;14.45;96.40
72116;BME280;59991;52.140;5.428;2023-05-09T02:13:50;101688.25;;;14.45;95.99
72116;BME280;59991;52.140;5.428;2023-05-09T02:14:22;101688.63;;;14.43;96.55
72116;BME280;59991;52.140;5.428;2023-05-09T02:14:53;101688.63;;;14.43;96.53
72116;BME280;59991;52.140;5.428;2023-05-09T02:15:25;101691.78;;;14.42;96.10
72116;BME280;59991;52.140;5.428;2023-05-09T02:15:57;101684.31;;;14.42;96.57
72116;BME280;59991;52.140;5.428;2023-05-09T02:16:29;101683.53;;;14.42;96.68
72116;BME280;59991;52.140;5.428;2023-05-09T02:17:00;101685.13;;;14.43;96.83
72116;BME280;59991;52.140;5.428;2023-05-09T02:17:37;101689.81;;;14.42;96.79
72116;BME280;59991;52.140;5.428;2023-05-09T02:18:09;101682.38;;;14.43;96.61
72116;BME280;59991;52.140;5.428;2023-05-09T02:18:41;101688.63;;;14.43;96.41
72116;BME280;59991;52.140;5.428;2023-05-09T02:19:12;101682.38;;;14.43;96.65
72116;BME280;59991;52.140;5.428;2023-05-09T02:19:44;101684.31;;;14.42;96.51
72116;BME280;59991;52.140;5.428;2023-05-09T02:20:15;101687.84;;;14.43;96.59
72116;BME280;59991;52.140;5.428;2023-05-09T02:20:47;101683.53;;;14.42;96.71
72116;BME280;59991;52.140;5.428;2023-05-09T02:21:18;101683.53;;;14.42;96.59
72116;BME280;59991;52.140;5.428;2023-05-09T02:21:50;101682.75;;;14.41;96.67
72116;BME280;59991;52.140;5.428;2023-05-09T02:22:22;101683.53;;;14.42;96.77
72116;BME280;59991;52.140;5.428;2023-05-09T02:22:54;101681.97;;;14.41;96.94
72116;BME280;59991;52.140;5.428;2023-05-09T02:23:25;101677.25;;;14.41;96.48
72116;BME280;59991;52.140;5.428;2023-05-09T02:23:57;101675.31;;;14.42;96.35
72116;BME280;59991;52.140;5.428;2023-05-09T02:24:31;101681.97;;;14.41;96.29
72116;BME280;59991;52.140;5.428;2023-05-09T02:25:03;101672.94;;;14.40;96.87
72116;BME280;59991;52.140;5.428;2023-05-09T02:25:38;101674.88;;;14.40;96.59
72116;BME280;59991;52.140;5.428;2023-05-09T02:26:10;101669.38;;;14.40;96.72
72116;BME280;59991;52.140;5.428;2023-05-09T02:26:42;101668.59;;;14.39;96.90
72116;BME280;59991;52.140;5.428;2023-05-09T02:27:14;101678.00;;;14.38;96.42
72116;BME280;59991;52.140;5.428;2023-05-09T02:27:46;101667.00;;;14.38;96.91
72116;BME280;59991;52.140;5.428;2023-05-09T02:28:18;101671.72;;;14.38;96.50
72116;BME280;59991;52.140;5.428;2023-05-09T02:28:52;101674.47;;;14.38;97.17
72116;BME280;59991;52.140;5.428;2023-05-09T02:29:30;101676.41;;;14.37;97.38
72116;BME280;59991;52.140;5.428;2023-05-09T02:30:13;101670.94;;;14.37;96.86
72116;BME280;59991;52.140;5.428;2023-05-09T02:30:46;101673.66;;;14.37;96.91
72116;BME280;59991;52.140;5.428;2023-05-09T02:31:21;101666.59;;;14.36;96.94
72116;BME280;59991;52.140;5.428;2023-05-09T02:31:54;101669.34;;;14.36;97.10
72116;BME280;59991;52.140;5.428;2023-05-09T02:32:30;101668.94;;;14.34;97.50
72116;BME280;59991;52.140;5.428;2023-05-09T02:33:05;101671.28;;;14.32;97.55
72116;BME280;59991;52.140;5.428;2023-05-09T02:33:38;101669.69;;;14.31;97.20
72116;BME280;59991;52.140;5.428;2023-05-09T02:34:09;101666.97;;;14.31;97.23
72116;BME280;59991;52.140;5.428;2023-05-09T02:34:42;101666.97;;;14.31;96.72
72116;BME280;59991;52.140;5.428;2023-05-09T02:35:16;101663.06;;;14.32;97.25
72116;BME280;59991;52.140;5.428;2023-05-09T02:35:49;101668.53;;;14.32;97.26
72116;BME280;59991;52.140;5.428;2023-05-09T02:36:22;101668.53;;;14.32;96.94
72116;BME280;59991;52.140;5.428;2023-05-09T02:36:54;101668.53;;;14.32;97.26
72116;BME280;59991;52.140;5.428;2023-05-09T02:37:26;101667.75;;;14.32;97.62
72116;BME280;59991;52.140;5.428;2023-05-09T02:37:58;101665.38;;;14.30;97.00
72116;BME280;59991;52.140;5.428;2023-05-09T02:38:31;101670.88;;;14.30;97.07
72116;BME280;59991;52.140;5.428;2023-05-09T02:39:02;101666.56;;;14.29;97.56
72116;BME280;59991;52.140;5.428;2023-05-09T02:39:34;101670.09;;;14.30;97.65
72116;BME280;59991;52.140;5.428;2023-05-09T02:40:07;101670.88;;;14.30;97.69
72116;BME280;59991;52.140;5.428;2023-05-09T02:40:42;101668.13;;;14.30;96.83
72116;BME280;59991;52.140;5.428;2023-05-09T02:41:15;101667.34;;;14.30;96.70
72116;BME280;59991;52.140;5.428;2023-05-09T02:41:47;101668.13;;;14.30;96.99
72116;BME280;59991;52.140;5.428;2023-05-09T02:42:21;101666.56;;;14.29;96.57
72116;BME280;59991;52.140;5.428;2023-05-09T02:42:55;101662.63;;;14.30;96.70
72116;BME280;59991;52.140;5.428;2023-05-09T02:43:27;101668.91;;;14.31;97.13
72116;BME280;59991;52.140;5.428;2023-05-09T02:43:58;101660.28;;;14.29;96.89
72116;BME280;59991;52.140;5.428;2023-05-09T02:44:30;101663.03;;;14.29;97.07
72116;BME280;59991;52.140;5.428;2023-05-09T02:45:01;101665.38;;;14.30;97.23
72116;BME280;59991;52.140;5.428;2023-05-09T02:45:33;101665.75;;;14.29;97.17
72116;BME280;59991;52.140;5.428;2023-05-09T02:46:06;101672.03;;;14.29;97.27
72116;BME280;59991;52.140;5.428;2023-05-09T02:46:37;101668.88;;;14.27;97.42
72116;BME280;59991;52.140;5.428;2023-05-09T02:47:09;101666.94;;;14.28;97.39
72116;BME280;59991;52.140;5.428;2023-05-09T02:47:40;101666.94;;;14.28;97.25
72116;BME280;59991;52.140;5.428;2023-05-09T02:48:12;101675.16;;;14.28;97.43
72116;BME280;59991;52.140;5.428;2023-05-09T02:48:44;101667.31;;;14.26;97.61
72116;BME280;59991;52.140;5.428;2023-05-09T02:49:15;101669.69;;;14.28;97.91
72116;BME280;59991;52.140;5.428;2023-05-09T02:50:03;101665.34;;;14.27;97.32
72116;BME280;59991;52.140;5.428;2023-05-09T02:50:35;101668.09;;;14.27;96.97
72116;BME280;59991;52.140;5.428;2023-05-09T02:51:08;101666.16;;;14.27;97.50
72116;BME280;59991;52.140;5.428;2023-05-09T02:51:40;101670.06;;;14.26;96.83
72116;BME280;59991;52.140;5.428;2023-05-09T02:52:11;101672.81;;;14.26;96.93
72116;BME280;59991;52.140;5.428;2023-05-09T02:52:43;101661.81;;;14.26;97.12
72116;BME280;59991;52.140;5.428;2023-05-09T02:53:14;101661.03;;;14.26;97.48
72116;BME280;59991;52.140;5.428;2023-05-09T02:53:46;101664.94;;;14.25;97.72
72116;BME280;59991;52.140;5.428;2023-05-09T02:54:17;101666.91;;;14.24;97.00
72116;BME280;59991;52.140;5.428;2023-05-09T02:54:48;101664.94;;;14.25;97.44
72116;BME280;59991;52.140;5.428;2023-05-09T02:55:20;101661.41;;;14.24;97.94
72116;BME280;59991;52.140;5.428;2023-05-09T02:55:52;101664.16;;;14.24;97.64
72116;BME280;59991;52.140;5.428;2023-05-09T02:56:24;101657.91;;;14.24;97.08
72116;BME280;59991;52.140;5.428;2023-05-09T02:56:55;101662.22;;;14.25;97.46
72116;BME280;59991;52.140;5.428;2023-05-09T02:57:26;101662.22;;;14.25;97.40
72116;BME280;59991;52.140;5.428;2023-05-09T02:57:58;101653.97;;;14.25;97.60
72116;BME280;59991;52.140;5.428;2023-05-09T02:58:43;101662.22;;;14.25;97.84
72116;BME280;59991;52.140;5.428;2023-05-09T02:59:21;101664.16;;;14.24;97.54
72116;BME280;59991;52.140;5.428;2023-05-09T02:59:52;101650.06;;;14.22;97.48
72116;BME280;59991;52.140;5.428;2023-05-09T03:00:23;101656.34;;;14.23;97.72
72116;BME280;59991;52.140;5.428;2023-05-09T03:00:56;101650.84;;;14.23;97.67
72116;BME280;59991;52.140;5.428;2023-05-09T03:01:27;101659.88;;;14.23;97.57
72116;BME280;59991;52.140;5.428;2023-05-09T03:01:59;101657.13;;;14.23;97.85
72116;BME280;59991;52.140;5.428;2023-05-09T03:02:30;101658.28;;;14.22;98.03
72116;BME280;59991;52.140;5.428;2023-05-09T03:03:02;101654.38;;;14.23;97.77
72116;BME280;59991;52.140;5.428;2023-05-09T03:03:33;101653.59;;;14.23;97.37
72116;BME280;59991;52.140;5.428;2023-05-09T03:04:05;101655.56;;;14.22;97.07
72116;BME280;59991;52.140;5.428;2023-05-09T03:04:37;101654.38;;;14.23;97.43